Time;durP1;ratioP1;P1;durP2;ratioP2;P2;SDS_P1;SDS_P2;PMS_P1;PMS_P2;Temp;Humidity;BMP_temperature;BMP_pressure;BME280_temperature;BME280_humidity;BME280_pressure;Samples;Min_cycle;Max_cycle;Signal;HPM_P1;HPM_P2
2023/05/24 00:00:14;;;;;;;25.13;5.28;;;8.20;89.30;;;;;;5054898;28;20036;-71
2023/05/24 00:02:40;;;;;;;30.42;6.35;;;8.20;89.30;;;;;;5051588;28;20027;-71
2023/05/24 00:05:09;;;;;;;28.52;6.25;;;8.20;89.60;;;;;;5048522;28;20028;-71
2023/05/24 00:07:37;;;;;;;28.27;6.22;;;8.20;89.30;;;;;;5047729;28;20115;-71
2023/05/24 00:10:04;;;;;;;26.13;5.65;;;8.20;89.50;;;;;;5049798;28;20108;-71
2023/05/24 00:12:30;;;;;;;29.20;6.05;;;8.20;89.30;;;;;;5052045;28;20115;-71
2023/05/24 00:14:55;;;;;;;27.02;6.20;;;8.20;89.40;;;;;;5047796;28;20342;-71
2023/05/24 00:17:21;;;;;;;28.33;5.80;;;8.20;89.60;;;;;;5054757;28;20416;-71
2023/05/24 00:19:46;;;;;;;30.33;5.72;;;8.20;89.60;;;;;;5049510;28;20115;-71
2023/05/24 00:22:12;;;;;;;23.15;5.50;;;8.10;89.70;;;;;;5044557;28;20024;-71
2023/05/24 00:24:38;;;;;;;29.05;5.72;;;8.10;89.80;;;;;;5045697;28;20357;-71
2023/05/24 00:27:04;;;;;;;26.45;6.05;;;8.10;90.00;;;;;;5050449;28;20045;-71
2023/05/24 00:29:30;;;;;;;26.88;6.03;;;8.10;90.10;;;;;;5044089;28;20024;-71
2023/05/24 00:31:55;;;;;;;24.80;5.75;;;8.20;90.30;;;;;;5049000;28;20032;-71
2023/05/24 00:34:21;;;;;;;27.73;6.15;;;8.20;90.50;;;;;;5049393;28;20406;-71
2023/05/24 00:36:46;;;;;;;21.27;5.72;;;8.20;90.20;;;;;;5043489;28;20029;-71
2023/05/24 00:39:12;;;;;;;32.53;5.60;;;8.10;90.10;;;;;;5040016;28;20044;-71
2023/05/24 00:41:37;;;;;;;23.02;5.85;;;8.10;90.30;;;;;;5046052;28;20072;-71
2023/05/24 00:44:03;;;;;;;23.77;5.57;;;8.10;90.30;;;;;;5044729;28;20477;-71
2023/05/24 00:46:30;;;;;;;27.98;5.72;;;8.10;90.30;;;;;;5069741;28;20025;-71
2023/05/24 00:48:56;;;;;;;24.58;5.45;;;8.00;90.60;;;;;;5061767;28;20373;-71
2023/05/24 00:51:23;;;;;;;27.50;6.15;;;8.00;90.80;;;;;;5039419;28;20472;-71
2023/05/24 00:53:48;;;;;;;32.35;5.53;;;8.00;90.60;;;;;;5050982;28;20032;-71
2023/05/24 00:56:15;;;;;;;30.17;6.32;;;8.00;90.70;;;;;;5046452;28;20029;-71
2023/05/24 00:58:41;;;;;;;24.05;5.95;;;7.90;90.90;;;;;;5048089;28;20614;-71
2023/05/24 01:01:07;;;;;;;28.17;6.40;;;7.80;91.10;;;;;;5049209;28;20529;-71
2023/05/24 01:03:32;;;;;;;28.67;6.22;;;7.80;91.20;;;;;;5050130;28;20509;-71
2023/05/24 01:06:00;;;;;;;20.98;5.22;;;7.80;91.20;;;;;;5047999;28;20036;-71
2023/05/24 01:08:44;;;;;;;20.77;5.60;;;7.80;91.10;;;;;;5041161;28;20099;-71
2023/05/24 01:11:29;;;;;;;28.77;5.75;;;7.80;91.40;;;;;;5047442;28;20052;-71
2023/05/24 01:14:07;;;;;;;36.25;7.18;;;7.80;91.50;;;;;;5048502;28;20086;-71
2023/05/24 01:16:45;;;;;;;29.33;6.40;;;7.80;91.60;;;;;;5046562;28;20028;-71
2023/05/24 01:19:48;;;;;;;36.90;6.32;;;7.70;91.60;;;;;;5048831;28;20037;-71
2023/05/24 01:22:27;;;;;;;31.25;5.97;;;7.70;91.90;;;;;;5042199;28;20104;-71
2023/05/24 01:25:21;;;;;;;29.25;6.15;;;7.70;91.80;;;;;;5042621;28;20025;-71
2023/05/24 01:27:47;;;;;;;27.98;6.38;;;7.80;92.00;;;;;;5049109;28;20373;-71
2023/05/24 01:30:14;;;;;;;36.17;6.70;;;7.80;92.00;;;;;;5049661;28;20040;-71
2023/05/24 01:32:39;;;;;;;35.47;6.60;;;7.70;92.00;;;;;;5044859;28;20037;-71
2023/05/24 01:35:05;;;;;;;39.55;7.45;;;7.70;92.10;;;;;;5048555;28;20361;-71
2023/05/24 01:37:30;;;;;;;34.55;6.55;;;7.80;92.20;;;;;;5042634;28;20025;-71
2023/05/24 01:39:56;;;;;;;24.30;6.30;;;7.80;92.00;;;;;;5046620;28;20824;-71
2023/05/24 01:42:26;;;;;;;17.38;5.72;;;7.80;92.00;;;;;;5047178;28;20067;-71
2023/05/24 01:45:24;;;;;;;27.80;6.47;;;7.80;92.10;;;;;;5048973;28;20032;-71
2023/05/24 01:48:18;;;;;;;23.73;6.28;;;7.90;92.20;;;;;;5047574;28;20048;-71
2023/05/24 01:50:57;;;;;;;23.42;5.45;;;7.90;92.20;;;;;;5039891;28;20107;-71
2023/05/24 01:53:26;;;;;;;31.95;6.72;;;7.90;92.10;;;;;;5048796;28;20025;-71
2023/05/24 01:55:55;;;;;;;30.20;5.75;;;8.00;92.10;;;;;;5055238;28;20033;-71
2023/05/24 01:58:22;;;;;;;27.40;6.10;;;7.90;92.00;;;;;;5046481;28;20063;-71
2023/05/24 02:00:48;;;;;;;28.63;5.75;;;7.90;91.90;;;;;;5044409;28;20029;-71
2023/05/24 02:03:14;;;;;;;30.33;5.78;;;7.90;92.00;;;;;;5045331;28;20520;-71
2023/05/24 02:05:40;;;;;;;36.25;6.97;;;7.90;92.10;;;;;;5044974;28;20021;-71
2023/05/24 02:08:05;;;;;;;26.98;6.65;;;7.90;92.10;;;;;;5041669;28;20515;-71
2023/05/24 02:10:31;;;;;;;32.42;6.68;;;7.80;92.00;;;;;;5044167;28;20071;-71
2023/05/24 02:12:58;;;;;;;24.23;6.53;;;7.80;92.20;;;;;;5045389;28;20061;-71
2023/05/24 02:15:24;;;;;;;29.02;6.38;;;7.80;92.50;;;;;;5048959;28;20028;-71
2023/05/24 02:17:53;;;;;;;38.47;6.70;;;7.70;92.50;;;;;;5048235;28;20056;-71
2023/05/24 02:20:21;;;;;;;32.53;6.57;;;7.70;92.60;;;;;;5051674;28;20057;-71
2023/05/24 02:22:47;;;;;;;32.40;6.82;;;7.80;92.70;;;;;;5037134;28;20044;-71
2023/05/24 02:25:12;;;;;;;30.73;6.30;;;7.70;92.70;;;;;;5044168;28;20102;-71
2023/05/24 02:27:38;;;;;;;26.52;6.55;;;7.70;92.70;;;;;;5046183;28;20116;-71
2023/05/24 02:30:05;;;;;;;33.55;7.20;;;7.60;92.90;;;;;;5044028;28;20454;-71
2023/05/24 02:32:31;;;;;;;25.17;6.45;;;7.60;92.90;;;;;;5045218;28;20643;-71
2023/05/24 02:34:58;;;;;;;28.48;5.95;;;7.60;93.20;;;;;;5051029;28;20052;-71
2023/05/24 02:37:23;;;;;;;29.08;6.28;;;7.60;93.40;;;;;;5054793;28;20048;-71
2023/05/24 02:39:49;;;;;;;26.83;6.45;;;7.60;93.20;;;;;;5064114;28;20623;-71
2023/05/24 02:42:15;;;;;;;36.47;6.47;;;7.60;93.40;;;;;;5052596;28;20071;-71
2023/05/24 02:44:41;;;;;;;28.23;6.90;;;7.60;93.30;;;;;;5062123;28;20025;-71
2023/05/24 02:47:07;;;;;;;33.88;6.78;;;7.50;93.40;;;;;;5061330;28;20017;-71
2023/05/24 02:49:32;;;;;;;35.00;6.18;;;7.60;93.50;;;;;;5052674;28;20464;-71
2023/05/24 02:51:58;;;;;;;37.05;7.25;;;7.60;93.40;;;;;;5055422;28;20044;-71
2023/05/24 02:54:23;;;;;;;32.05;6.80;;;7.70;93.50;;;;;;5050995;28;20040;-71
2023/05/24 02:56:49;;;;;;;29.95;7.13;;;7.70;93.50;;;;;;5048904;28;20037;-71
2023/05/24 02:59:15;;;;;;;24.38;6.28;;;7.70;93.30;;;;;;5052085;28;20036;-71
2023/05/24 03:01:40;;;;;;;34.58;6.22;;;7.70;93.20;;;;;;5051083;28;20373;-71
2023/05/24 03:04:05;;;;;;;28.45;6.00;;;7.70;93.30;;;;;;5048980;28;20044;-71
2023/05/24 03:06:31;;;;;;;27.70;6.18;;;7.70;93.20;;;;;;5055348;28;20374;-71
2023/05/24 03:08:58;;;;;;;34.47;6.93;;;7.70;93.30;;;;;;5048884;28;20032;-71
2023/05/24 03:11:23;;;;;;;22.65;6.50;;;7.80;93.30;;;;;;5051088;28;20338;-71
2023/05/24 03:13:49;;;;;;;29.88;6.30;;;7.80;93.30;;;;;;5050459;28;20052;-71
2023/05/24 03:16:15;;;;;;;33.38;6.72;;;7.80;93.20;;;;;;5050916;28;20033;-71
2023/05/24 03:18:41;;;;;;;25.90;5.88;;;7.80;93.20;;;;;;5053074;28;20021;-71
2023/05/24 03:21:06;;;;;;;34.63;7.38;;;7.80;93.10;;;;;;5046364;28;20385;-71
2023/05/24 03:23:32;;;;;;;23.48;6.35;;;7.80;93.20;;;;;;5049556;28;20025;-71
2023/05/24 03:25:57;;;;;;;19.42;6.13;;;7.80;93.40;;;;;;5061292;28;20053;-71
2023/05/24 03:28:23;;;;;;;27.40;6.50;;;7.90;93.40;;;;;;5050024;28;20107;-71
2023/05/24 03:30:48;;;;;;;34.10;6.28;;;7.70;93.50;;;;;;5060566;28;20025;-71
2023/05/24 03:33:14;;;;;;;29.17;6.85;;;7.80;93.70;;;;;;5048753;28;20023;-71
2023/05/24 03:35:39;;;;;;;20.45;5.85;;;7.80;94.00;;;;;;5062222;28;20017;-71
2023/05/24 03:38:05;;;;;;;26.92;6.88;;;7.70;94.10;;;;;;5048907;28;20056;-71
2023/05/24 03:40:31;;;;;;;38.20;6.93;;;7.80;94.40;;;;;;5051563;28;20032;-71
2023/05/24 03:42:56;;;;;;;26.98;6.43;;;7.80;94.30;;;;;;5054253;28;20083;-71
2023/05/24 03:45:22;;;;;;;24.73;6.03;;;7.80;94.20;;;;;;5047846;28;20037;-71
2023/05/24 03:47:47;;;;;;;29.00;7.03;;;7.80;94.40;;;;;;5046669;28;20110;-71
2023/05/24 03:50:13;;;;;;;26.20;6.03;;;7.90;94.50;;;;;;5048837;28;20064;-71
2023/05/24 03:52:39;;;;;;;28.10;7.45;;;7.80;94.30;;;;;;5048033;28;20033;-71
2023/05/24 03:55:05;;;;;;;27.63;6.22;;;7.80;94.50;;;;;;5063917;28;20041;-71
2023/05/24 03:57:30;;;;;;;30.75;6.68;;;7.80;94.50;;;;;;5049780;28;20040;-71
2023/05/24 03:59:56;;;;;;;29.02;6.13;;;7.80;94.50;;;;;;5052110;28;20377;-71
2023/05/24 04:02:21;;;;;;;31.67;8.70;;;7.90;94.50;;;;;;5046070;28;20061;-71
2023/05/24 04:04:47;;;;;;;30.75;6.68;;;7.90;94.70;;;;;;5042245;28;20044;-71
2023/05/24 04:07:14;;;;;;;38.13;7.28;;;8.00;94.70;;;;;;5046468;28;20449;-72
2023/05/24 04:09:40;;;;;;;26.63;6.85;;;8.00;94.60;;;;;;5046970;28;20032;-73
2023/05/24 04:12:05;;;;;;;31.42;7.07;;;8.00;94.70;;;;;;5057360;28;20099;-70
2023/05/24 04:14:31;;;;;;;26.95;7.05;;;8.10;94.90;;;;;;5053301;28;20037;-70
2023/05/24 04:16:57;;;;;;;26.30;6.82;;;8.10;94.90;;;;;;5071392;28;20024;-71
2023/05/24 04:19:22;;;;;;;27.65;7.50;;;8.00;94.90;;;;;;5047483;28;20036;-70
2023/05/24 04:21:49;;;;;;;26.50;6.50;;;8.00;95.10;;;;;;5052765;28;20023;-71
2023/05/24 04:24:15;;;;;;;26.10;7.07;;;8.00;95.30;;;;;;5054493;28;20056;-70
2023/05/24 04:26:40;;;;;;;26.25;6.50;;;8.00;95.30;;;;;;5048524;28;20052;-70
2023/05/24 04:29:06;;;;;;;24.40;6.22;;;7.90;95.50;;;;;;5044387;28;20025;-69
2023/05/24 04:31:33;;;;;;;27.60;7.22;;;7.90;95.60;;;;;;5044910;28;20021;-72
2023/05/24 04:33:58;;;;;;;28.30;6.40;;;7.90;95.70;;;;;;5044020;28;20020;-72
2023/05/24 04:36:24;;;;;;;28.23;6.45;;;7.80;95.90;;;;;;5043979;28;20025;-72
2023/05/24 04:38:52;;;;;;;34.92;7.45;;;7.90;96.20;;;;;;5056797;28;20036;-71
2023/05/24 04:41:18;;;;;;;29.52;7.40;;;7.90;96.30;;;;;;5043933;28;20033;-71
2023/05/24 04:43:44;;;;;;;26.80;7.65;;;7.90;96.40;;;;;;5045385;28;20035;-71
2023/05/24 04:46:09;;;;;;;39.00;8.07;;;8.00;96.50;;;;;;5055827;28;20041;-72
2023/05/24 04:48:35;;;;;;;34.45;7.88;;;8.00;96.50;;;;;;5044688;28;20161;-72
2023/05/24 04:51:00;;;;;;;35.00;8.60;;;8.10;96.80;;;;;;5043407;28;20032;-72
2023/05/24 04:53:26;;;;;;;30.40;8.05;;;8.00;96.80;;;;;;5045955;28;20022;-71
2023/05/24 04:55:52;;;;;;;33.83;7.93;;;8.00;96.80;;;;;;5046627;28;20029;-72
2023/05/24 04:58:18;;;;;;;26.00;6.53;;;8.10;97.20;;;;;;5039694;28;20366;-72
2023/05/24 05:00:43;;;;;;;29.42;7.72;;;8.00;97.00;;;;;;5038226;28;20036;-71
2023/05/24 05:03:09;;;;;;;40.85;8.23;;;8.00;97.30;;;;;;5042720;28;20029;-72
2023/05/24 05:05:35;;;;;;;27.40;7.70;;;8.00;97.50;;;;;;5042501;28;20535;-72
2023/05/24 05:08:01;;;;;;;36.60;8.30;;;8.10;97.80;;;;;;5045376;28;20112;-74
2023/05/24 05:10:26;;;;;;;33.08;8.27;;;8.00;97.80;;;;;;5047200;28;20288;-74
2023/05/24 05:12:52;;;;;;;35.03;8.63;;;8.00;97.70;;;;;;5052314;28;20465;-74
2023/05/24 05:15:22;;;;;;;26.25;7.85;;;8.10;97.80;;;;;;5045996;28;20021;-74
2023/05/24 05:17:48;;;;;;;30.43;8.13;;;8.10;98.00;;;;;;5058798;28;20025;-74
2023/05/24 05:20:14;;;;;;;30.05;7.85;;;8.10;98.00;;;;;;5051668;28;20036;-74
2023/05/24 05:22:45;;;;;;;26.65;6.95;;;8.20;98.00;;;;;;5049621;28;20045;-74
2023/05/24 05:25:10;;;;;;;;;;;8.10;97.90;;;;;;5050476;28;20045;-74
2023/05/24 05:27:35;;;;;;;35.25;7.53;;;8.10;98.00;;;;;;5049930;28;19915;-74
2023/05/24 05:30:01;;;;;;;32.13;7.60;;;8.20;98.20;;;;;;5046240;28;20028;-74
2023/05/24 05:32:26;;;;;;;27.95;7.70;;;8.30;98.20;;;;;;5042588;28;20076;-75
2023/05/24 05:34:52;;;;;;;33.72;7.53;;;8.30;98.20;;;;;;5043749;28;20020;-74
2023/05/24 05:37:17;;;;;;;29.63;6.82;;;8.30;98.30;;;;;;5047669;28;20025;-74
2023/05/24 05:39:43;;;;;;;28.02;7.78;;;8.30;98.20;;;;;;5049879;28;20033;-73
2023/05/24 05:42:08;;;;;;;34.35;7.68;;;8.40;98.30;;;;;;5057569;28;20369;-73
2023/05/24 05:44:34;;;;;;;31.52;7.55;;;8.40;98.20;;;;;;5048422;28;20028;-73
2023/05/24 05:46:59;;;;;;;33.28;7.32;;;8.30;98.30;;;;;;5050766;28;20466;-73
2023/05/24 05:49:25;;;;;;;32.50;8.45;;;8.40;98.40;;;;;;5038502;28;20028;-73
2023/05/24 05:51:51;;;;;;;30.58;8.07;;;8.30;98.30;;;;;;5043466;28;20041;-73
2023/05/24 05:54:17;;;;;;;29.52;8.07;;;8.30;98.30;;;;;;5048330;28;20112;-73
2023/05/24 05:56:47;;;;;;;34.30;8.02;;;8.30;98.40;;;;;;5048850;28;20104;-73
2023/05/24 05:59:15;;;;;;;32.45;7.20;;;8.30;98.40;;;;;;5046603;28;20320;-73
2023/05/24 06:01:42;;;;;;;26.73;7.65;;;8.30;98.30;;;;;;5049034;28;20040;-73
2023/05/24 06:04:07;;;;;;;29.27;9.48;;;8.30;98.20;;;;;;5046470;28;20029;-73
2023/05/24 06:06:33;;;;;;;29.02;6.72;;;8.30;98.30;;;;;;5042486;28;20040;-73
2023/05/24 06:08:59;;;;;;;27.40;8.48;;;8.50;98.30;;;;;;5045148;28;20045;-73
2023/05/24 06:11:25;;;;;;;34.65;7.63;;;8.50;98.10;;;;;;5038926;28;20481;-73
2023/05/24 06:13:51;;;;;;;31.25;8.35;;;8.50;98.10;;;;;;5049231;28;20021;-73
2023/05/24 06:16:17;;;;;;;26.27;7.78;;;8.60;98.10;;;;;;5046201;28;20040;-73
2023/05/24 06:18:42;;;;;;;26.80;8.23;;;8.60;98.00;;;;;;5053104;28;20074;-73
2023/05/24 06:21:09;;;;;;;27.75;7.90;;;8.70;97.90;;;;;;5049045;28;20462;-73
2023/05/24 06:23:36;;;;;;;37.08;7.82;;;8.50;97.60;;;;;;5043648;28;20346;-74
2023/05/24 06:26:02;;;;;;;36.90;8.70;;;8.60;97.70;;;;;;5048486;28;20045;-73
2023/05/24 06:28:28;;;;;;;29.40;7.43;;;8.60;97.80;;;;;;5043070;28;20124;-74
2023/05/24 06:30:53;;;;;;;28.90;7.22;;;8.70;97.70;;;;;;5055214;28;20440;-73
2023/05/24 06:33:19;;;;;;;34.63;7.53;;;8.80;97.70;;;;;;5043977;28;20040;-73
2023/05/24 06:35:44;;;;;;;30.75;6.97;;;8.70;97.40;;;;;;5049548;28;20461;-73
2023/05/24 06:38:10;;;;;;;34.47;7.38;;;8.80;97.60;;;;;;5044875;28;20026;-73
2023/05/24 06:40:35;;;;;;;29.05;7.25;;;8.80;97.50;;;;;;5046141;28;20036;-73
2023/05/24 06:43:01;;;;;;;33.42;7.53;;;8.80;97.50;;;;;;5051168;28;20449;-74
2023/05/24 06:45:26;;;;;;;29.02;7.45;;;8.80;97.60;;;;;;5054262;28;20025;-73
2023/05/24 06:47:52;;;;;;;25.48;7.72;;;8.90;97.60;;;;;;5053103;28;20037;-73
2023/05/24 06:50:17;;;;;;;36.38;7.60;;;8.90;97.60;;;;;;5050617;28;20048;-73
2023/05/24 06:52:43;;;;;;;30.60;7.85;;;8.80;97.50;;;;;;5049752;28;20027;-73
2023/05/24 06:55:09;;;;;;;29.42;7.55;;;9.00;97.90;;;;;;5052016;28;20025;-73
2023/05/24 06:57:34;;;;;;;29.33;7.40;;;9.00;97.80;;;;;;5052337;28;20134;-73
2023/05/24 07:00:00;;;;;;;27.95;7.90;;;9.00;97.80;;;;;;5060634;28;20513;-73
2023/05/24 07:02:27;;;;;;;29.77;7.55;;;9.00;98.00;;;;;;5050497;28;20029;-74
2023/05/24 07:04:53;;;;;;;26.75;7.80;;;9.00;98.00;;;;;;5053535;28;20059;-73
2023/05/24 07:07:19;;;;;;;27.88;8.35;;;9.00;98.00;;;;;;5046282;28;20110;-74
2023/05/24 07:09:46;;;;;;;34.75;7.80;;;9.20;98.20;;;;;;5050663;28;20025;-73
2023/05/24 07:12:11;;;;;;;31.30;7.50;;;9.30;98.20;;;;;;5052918;28;20071;-74
2023/05/24 07:14:37;;;;;;;35.45;8.68;;;9.30;97.90;;;;;;5055446;28;20029;-73
2023/05/24 07:17:03;;;;;;;27.92;7.90;;;9.40;98.00;;;;;;5052895;28;20075;-74
2023/05/24 07:19:28;;;;;;;26.77;7.85;;;9.50;98.00;;;;;;5057537;28;20441;-74
2023/05/24 07:21:57;;;;;;;36.58;7.55;;;9.60;97.90;;;;;;5049338;28;20087;-74
2023/05/24 07:24:23;;;;;;;29.50;7.75;;;9.60;97.70;;;;;;5045271;28;20032;-74
2023/05/24 07:26:49;;;;;;;30.77;8.68;;;9.60;97.80;;;;;;5046165;28;20119;-74
2023/05/24 07:29:15;;;;;;;32.38;7.55;;;9.60;97.90;;;;;;5045815;28;20051;-74
2023/05/24 07:31:41;;;;;;;25.58;7.95;;;9.70;97.70;;;;;;5048532;28;20473;-74
2023/05/24 07:34:06;;;;;;;35.58;8.18;;;9.60;97.40;;;;;;5046083;28;20128;-73
2023/05/24 07:36:32;;;;;;;29.27;8.35;;;9.80;97.40;;;;;;5065041;28;20124;-74
2023/05/24 07:38:59;;;;;;;26.15;7.75;;;9.90;97.20;;;;;;5055319;28;20472;-74
2023/05/24 07:41:26;;;;;;;28.88;7.63;;;10.10;97.20;;;;;;5052089;28;20039;-74
2023/05/24 07:43:53;;;;;;;29.98;8.15;;;10.20;96.90;;;;;;5060340;28;20024;-74
2023/05/24 07:46:19;;;;;;;28.73;7.50;;;10.40;96.40;;;;;;5053557;28;20100;-75
2023/05/24 07:48:44;;;;;;;35.03;7.75;;;10.40;96.10;;;;;;5051806;28;20100;-74
2023/05/24 07:51:11;;;;;;;23.70;7.13;;;10.40;95.90;;;;;;5056739;28;20474;-74
2023/05/24 07:53:36;;;;;;;24.33;7.05;;;10.40;95.60;;;;;;5051937;28;20033;-74
2023/05/24 07:56:02;;;;;;;34.00;7.22;;;10.50;95.50;;;;;;5054845;28;20029;-74
2023/05/24 07:58:28;;;;;;;40.25;8.02;;;10.50;95.50;;;;;;5047534;28;20031;-74
2023/05/24 08:00:54;;;;;;;29.98;7.50;;;10.50;95.30;;;;;;5061259;28;20029;-74
2023/05/24 08:03:20;;;;;;;34.40;6.88;;;10.50;95.30;;;;;;5048059;28;20462;-74
2023/05/24 08:05:45;;;;;;;26.75;6.70;;;10.70;95.50;;;;;;5055139;28;20035;-75
2023/05/24 08:08:11;;;;;;;23.27;6.18;;;10.60;95.30;;;;;;5056877;28;20099;-74
2023/05/24 08:10:36;;;;;;;23.45;6.47;;;10.70;95.30;;;;;;5055575;28;20055;-75
2023/05/24 08:13:02;;;;;;;33.08;7.05;;;10.70;95.00;;;;;;5057466;28;20036;-74
2023/05/24 08:15:28;;;;;;;30.80;6.53;;;10.70;95.20;;;;;;5049633;28;20029;-74
2023/05/24 08:17:53;;;;;;;29.95;7.10;;;10.70;95.20;;;;;;5051378;28;20029;-74
2023/05/24 08:20:19;;;;;;;28.77;7.18;;;10.70;95.00;;;;;;5053448;28;20029;-74
2023/05/24 08:22:47;;;;;;;28.35;7.28;;;10.90;95.00;;;;;;5049724;28;20029;-74
2023/05/24 08:25:12;;;;;;;25.58;6.53;;;10.90;94.90;;;;;;5054907;28;20048;-73
2023/05/24 08:27:38;;;;;;;27.27;6.88;;;11.00;94.80;;;;;;5046212;28;20363;-74
2023/05/24 08:30:04;;;;;;;33.05;7.00;;;11.00;94.50;;;;;;5062741;28;20442;-74
2023/05/24 08:32:31;;;;;;;20.23;6.55;;;11.10;94.50;;;;;;5045105;28;20025;-74
2023/05/24 08:34:56;;;;;;;25.52;6.45;;;11.10;94.30;;;;;;5059445;28;20029;-74
2023/05/24 08:37:22;;;;;;;24.00;6.10;;;11.30;94.30;;;;;;5050427;28;20036;-73
2023/05/24 08:39:48;;;;;;;21.13;6.60;;;11.30;94.20;;;;;;5049499;28;20029;-74
2023/05/24 08:42:14;;;;;;;25.27;6.55;;;11.30;94.60;;;;;;5057754;28;20056;-73
2023/05/24 08:44:51;;;;;;;24.80;6.70;;;11.50;94.50;;;;;;5054077;28;20033;-72
2023/05/24 08:47:20;;;;;;;31.85;6.70;;;11.50;94.10;;;;;;5055679;28;20024;-69
2023/05/24 08:49:47;;;;;;;30.95;7.35;;;11.60;94.20;;;;;;5061323;28;20035;-73
2023/05/24 08:52:13;;;;;;;23.10;6.30;;;11.50;94.10;;;;;;5042469;28;20374;-72
2023/05/24 08:54:40;;;;;;;25.15;6.18;;;11.40;93.80;;;;;;5046935;28;20120;-73
2023/05/24 08:57:06;;;;;;;28.45;6.45;;;11.50;94.00;;;;;;5044981;28;20033;-73
2023/05/24 08:59:32;;;;;;;24.75;6.28;;;11.40;94.20;;;;;;5048790;28;20035;-73
2023/05/24 09:01:58;;;;;;;38.97;7.60;;;11.30;94.30;;;;;;5060054;28;20032;-73
2023/05/24 09:04:26;;;;;;;27.08;6.82;;;11.40;94.70;;;;;;5042599;28;20030;-73
2023/05/24 09:06:53;;;;;;;29.50;6.50;;;11.30;94.70;;;;;;5049137;28;20591;-73
2023/05/24 09:09:20;;;;;;;32.65;6.68;;;11.30;94.60;;;;;;5037723;28;20025;-73
2023/05/24 09:11:49;;;;;;;32.75;7.65;;;11.40;94.90;;;;;;5037854;28;20528;-72
2023/05/24 09:14:15;;;;;;;33.95;7.10;;;11.40;95.10;;;;;;5045652;28;20108;-72
2023/05/24 09:16:42;;;;;;;24.33;6.88;;;11.30;94.90;;;;;;5051579;28;20500;-72
2023/05/24 09:19:08;;;;;;;32.33;6.65;;;11.30;94.90;;;;;;5048812;28;20452;-72
2023/05/24 09:21:33;;;;;;;24.98;6.78;;;11.30;95.40;;;;;;5040457;28;20033;-72
2023/05/24 09:23:59;;;;;;;30.00;6.95;;;11.30;95.70;;;;;;5051292;28;20025;-71
2023/05/24 09:26:29;;;;;;;33.20;7.60;;;11.30;95.80;;;;;;5052439;28;20049;-71
2023/05/24 09:28:56;;;;;;;42.22;8.23;;;11.20;95.80;;;;;;5048920;28;20545;-71
2023/05/24 09:31:32;;;;;;;38.58;7.32;;;11.20;96.10;;;;;;5047428;28;20480;-72
2023/05/24 09:33:58;;;;;;;29.23;7.38;;;11.20;95.90;;;;;;5043704;28;20046;-72
2023/05/24 09:36:23;;;;;;;31.42;6.97;;;11.20;95.60;;;;;;5052517;28;20104;-71
2023/05/24 09:39:04;;;;;;;29.45;7.18;;;11.20;95.40;;;;;;5046984;28;20415;-72
2023/05/24 09:41:30;;;;;;;30.35;7.80;;;11.30;95.40;;;;;;5048972;28;20029;-72
2023/05/24 09:43:56;;;;;;;32.00;8.23;;;11.40;95.30;;;;;;5050825;28;20361;-72
2023/05/24 09:46:21;;;;;;;33.20;6.95;;;11.50;95.40;;;;;;5044640;28;20029;-72
2023/05/24 09:49:02;;;;;;;30.38;7.82;;;11.60;95.40;;;;;;5049575;28;20031;-71
2023/05/24 09:51:28;;;;;;;31.38;7.38;;;11.60;94.90;;;;;;5047954;28;20365;-72
2023/05/24 09:54:00;;;;;;;40.08;7.53;;;11.70;95.20;;;;;;5047741;28;20039;-72
2023/05/24 09:56:26;;;;;;;33.80;7.90;;;11.60;94.90;;;;;;5045636;28;20551;-72
2023/05/24 09:58:53;;;;;;;34.22;7.30;;;11.60;94.90;;;;;;5050184;28;20032;-71
2023/05/24 10:01:22;;;;;;;31.20;7.90;;;11.50;95.10;;;;;;5052953;28;20039;-72
2023/05/24 10:03:55;;;;;;;34.92;7.75;;;11.40;95.30;;;;;;5043832;28;20035;-72
2023/05/24 10:06:22;;;;;;;32.97;7.60;;;11.40;95.50;;;;;;5045134;28;20032;-72
2023/05/24 10:08:49;;;;;;;31.33;8.32;;;11.50;95.70;;;;;;5049782;28;20035;-72
2023/05/24 10:11:15;;;;;;;29.50;8.43;;;11.50;95.80;;;;;;5060465;28;20032;-72
2023/05/24 10:13:41;;;;;;;30.20;7.50;;;11.50;96.00;;;;;;5049098;28;20500;-72
2023/05/24 10:16:07;;;;;;;33.95;8.68;;;11.40;96.40;;;;;;5054391;28;20036;-72
2023/05/24 10:18:32;;;;;;;35.22;8.23;;;11.30;96.20;;;;;;5050211;28;20368;-71
2023/05/24 10:21:00;;;;;;;35.70;8.73;;;11.30;96.30;;;;;;5044188;28;20029;-71
2023/05/24 10:23:28;;;;;;;33.25;8.00;;;11.30;96.30;;;;;;5042708;28;20036;-72
2023/05/24 10:26:02;;;;;;;34.65;8.23;;;11.30;96.30;;;;;;5048060;28;20060;-72
2023/05/24 10:28:29;;;;;;;32.10;8.43;;;11.50;96.10;;;;;;5049863;28;20021;-72
2023/05/24 10:31:01;;;;;;;31.63;9.07;;;11.70;96.40;;;;;;5049573;28;20056;-72
2023/05/24 10:33:28;;;;;;;34.35;8.40;;;12.00;95.90;;;;;;5039183;28;20034;-72
2023/05/24 10:35:55;;;;;;;40.90;8.82;;;12.20;95.60;;;;;;5045068;28;20036;-72
2023/05/24 10:38:22;;;;;;;33.03;7.35;;;12.10;94.60;;;;;;5044556;28;20365;-72
2023/05/24 10:40:48;;;;;;;31.05;7.57;;;12.00;94.50;;;;;;5054551;28;20136;-72
2023/05/24 10:43:15;;;;;;;24.45;7.13;;;12.00;94.60;;;;;;5052312;28;20032;-72
2023/05/24 10:45:41;;;;;;;26.33;7.25;;;12.10;94.60;;;;;;5047113;28;20055;-72
2023/05/24 10:48:12;;;;;;;28.35;6.57;;;12.00;94.50;;;;;;5066994;28;20030;-72
2023/05/24 10:50:42;;;;;;;24.00;7.03;;;11.90;94.60;;;;;;5069205;28;20119;-72
2023/05/24 10:53:17;;;;;;;25.02;7.05;;;12.00;95.00;;;;;;5049540;28;20345;-72
2023/05/24 10:55:52;;;;;;;27.52;6.72;;;12.00;94.80;;;;;;5047915;28;20057;-72
2023/05/24 10:58:18;;;;;;;27.98;7.18;;;12.10;94.70;;;;;;5050394;28;20079;-72
2023/05/24 11:00:44;;;;;;;23.15;6.65;;;12.10;94.50;;;;;;5051529;28;20064;-72
2023/05/24 11:03:11;;;;;;;25.45;6.47;;;12.10;94.40;;;;;;5058977;28;20353;-72
2023/05/24 11:05:47;;;;;;;24.60;7.30;;;12.00;94.80;;;;;;5063962;28;20414;-72
2023/05/24 11:08:13;;;;;;;23.80;7.30;;;12.00;94.50;;;;;;5039517;28;20366;-72
2023/05/24 11:10:40;;;;;;;23.52;6.38;;;12.00;94.40;;;;;;5046615;28;20037;-72
2023/05/24 11:13:07;;;;;;;26.55;6.93;;;12.10;94.60;;;;;;5050977;28;20059;-72
2023/05/24 11:15:33;;;;;;;28.75;7.22;;;12.10;93.90;;;;;;5055015;28;20025;-72
2023/05/24 11:18:08;;;;;;;24.90;7.55;;;12.30;94.40;;;;;;5052541;28;20178;-72
2023/05/24 11:20:34;;;;;;;37.03;7.40;;;12.30;93.70;;;;;;5055634;28;20051;-72
2023/05/24 11:23:08;;;;;;;24.38;7.72;;;12.30;93.30;;;;;;5050396;28;20025;-72
2023/05/24 11:25:36;;;;;;;28.63;6.88;;;12.30;93.30;;;;;;5067033;28;20048;-72
2023/05/24 11:28:03;;;;;;;30.40;8.65;;;12.50;93.60;;;;;;5044712;28;20104;-72
2023/05/24 11:30:31;;;;;;;35.50;7.97;;;12.60;93.50;;;;;;5053646;28;20035;-72
2023/05/24 11:32:57;;;;;;;26.33;7.18;;;12.70;92.10;;;;;;5037572;28;20048;-72
2023/05/24 11:35:26;;;;;;;22.58;7.45;;;13.00;92.30;;;;;;5050961;28;20032;-72
2023/05/24 11:37:52;;;;;;;31.02;6.97;;;13.20;91.70;;;;;;5056294;28;20033;-72
2023/05/24 11:40:19;;;;;;;31.38;6.90;;;13.40;91.20;;;;;;5051434;28;20051;-72
2023/05/24 11:42:45;;;;;;;27.02;6.60;;;13.60;90.90;;;;;;5065024;28;20036;-72
2023/05/24 11:45:12;;;;;;;28.58;7.25;;;13.60;90.00;;;;;;5041077;28;20029;-72
2023/05/24 11:47:38;;;;;;;24.20;7.07;;;13.60;90.00;;;;;;5050320;28;20487;-72
2023/05/24 11:50:05;;;;;;;27.08;6.57;;;13.50;89.00;;;;;;5050676;28;20116;-72
2023/05/24 11:52:31;;;;;;;23.17;6.30;;;13.50;89.50;;;;;;5054622;28;20049;-72
2023/05/24 11:54:57;;;;;;;26.10;6.30;;;13.60;89.80;;;;;;5052032;28;20154;-72
2023/05/24 11:57:40;;;;;;;22.98;5.85;;;13.70;89.50;;;;;;5051305;28;20047;-72
2023/05/24 12:00:10;;;;;;;25.52;7.18;;;13.80;89.00;;;;;;5052443;28;20029;-72
2023/05/24 12:02:36;;;;;;;27.47;6.97;;;13.70;89.30;;;;;;5038303;28;20828;-72
2023/05/24 12:05:10;;;;;;;26.50;6.03;;;13.70;90.20;;;;;;5048475;28;20108;-72
2023/05/24 12:07:36;;;;;;;19.77;6.22;;;13.60;89.90;;;;;;5045780;28;20040;-72
2023/05/24 12:10:03;;;;;;;27.77;6.25;;;13.30;88.50;;;;;;5054345;28;20469;-72
2023/05/24 12:12:28;;;;;;;20.45;5.60;;;13.20;89.10;;;;;;5048730;28;20032;-72
2023/05/24 12:14:55;;;;;;;20.30;5.88;;;13.20;89.00;;;;;;5042557;28;20520;-72
2023/05/24 12:17:20;;;;;;;20.65;6.15;;;13.50;89.40;;;;;;5043231;28;20485;-72
2023/05/24 12:19:49;;;;;;;21.23;5.82;;;13.70;89.30;;;;;;5040823;28;20059;-72
2023/05/24 12:22:14;;;;;;;18.92;6.40;;;13.70;88.30;;;;;;5044312;28;20091;-72
2023/05/24 12:24:41;;;;;;;18.95;5.38;;;13.90;87.80;;;;;;5050933;28;20032;-72
2023/05/24 12:27:07;;;;;;;19.13;5.72;;;14.00;87.50;;;;;;5049240;28;20578;-72
2023/05/24 12:29:39;;;;;;;19.83;5.82;;;14.00;86.60;;;;;;5051029;28;20130;-72
2023/05/24 12:32:05;;;;;;;20.85;6.38;;;14.10;87.20;;;;;;5049873;28;20053;-72
2023/05/24 12:34:31;;;;;;;18.10;5.47;;;14.20;87.90;;;;;;5040215;28;20025;-74
2023/05/24 12:36:58;;;;;;;14.85;5.07;;;14.40;86.90;;;;;;5063953;28;20048;-74
2023/05/24 12:39:33;;;;;;;18.05;6.00;;;14.50;87.20;;;;;;5047280;28;20025;-74
2023/05/24 12:42:02;;;;;;;15.27;5.10;;;14.40;86.30;;;;;;5047507;28;20024;-74